sensor_id;sensor_type;location;lat;lon;timestamp;temperature;humidity
26803;DHT22;14378;51.796;5.808;2023-03-01T00:06:32;2.30;99.90
26803;DHT22;14378;51.796;5.808;2023-03-01T00:08:37;2.30;99.90
26803;DHT22;14378;51.796;5.808;2023-03-01T00:10:38;2.20;99.90
26803;DHT22;14378;51.796;5.808;2023-03-01T00:12:39;2.30;99.90
26803;DHT22;14378;51.796;5.808;2023-03-01T00:14:40;2.20;99.90
26803;DHT22;14378;51.796;5.808;2023-03-01T00:16:42;2.20;99.90
26803;DHT22;14378;51.796;5.808;2023-03-01T00:18:43;2.20;99.90
26803;DHT22;14378;51.796;5.808;2023-03-01T00:20:53;2.20;99.90
26803;DHT22;14378;51.796;5.808;2023-03-01T00:22:57;2.20;99.90
26803;DHT22;14378;51.796;5.808;2023-03-01T00:24:58;2.20;99.90
26803;DHT22;14378;51.796;5.808;2023-03-01T00:27:01;2.20;99.90
26803;DHT22;14378;51.796;5.808;2023-03-01T00:29:03;2.10;99.90
26803;DHT22;14378;51.796;5.808;2023-03-01T00:31:06;2.10;99.90
26803;DHT22;14378;51.796;5.808;2023-03-01T00:33:08;2.20;99.90
26803;DHT22;14378;51.796;5.808;2023-03-01T00:35:10;2.10;99.90
26803;DHT22;14378;51.796;5.808;2023-03-01T00:37:11;2.10;99.90
26803;DHT22;14378;51.796;5.808;2023-03-01T00:39:14;2.10;99.90
26803;DHT22;14378;51.796;5.808;2023-03-01T00:41:17;2.10;99.90
26803;DHT22;14378;51.796;5.808;2023-03-01T00:43:21;2.10;99.90
26803;DHT22;14378;51.796;5.808;2023-03-01T00:45:23;2.10;99.90
26803;DHT22;14378;51.796;5.808;2023-03-01T00:47:25;2.00;99.90
26803;DHT22;14378;51.796;5.808;2023-03-01T00:49:29;2.10;99.90
26803;DHT22;14378;51.796;5.808;2023-03-01T00:51:31;2.00;99.90
26803;DHT22;14378;51.796;5.808;2023-03-01T00:53:32;2.00;99.90
26803;DHT22;14378;51.796;5.808;2023-03-01T00:55:33;2.00;99.90
26803;DHT22;14378;51.796;5.808;2023-03-01T00:57:34;2.00;99.90
26803;DHT22;14378;51.796;5.808;2023-03-01T00:59:35;2.00;99.90
26803;DHT22;14378;51.796;5.808;2023-03-01T01:01:36;1.90;99.90
26803;DHT22;14378;51.796;5.808;2023-03-01T01:03:37;1.90;99.90
26803;DHT22;14378;51.796;5.808;2023-03-01T01:05:38;1.90;99.90
26803;DHT22;14378;51.796;5.808;2023-03-01T01:07:41;1.90;99.90
26803;DHT22;14378;51.796;5.808;2023-03-01T01:09:42;1.90;99.90
26803;DHT22;14378;51.796;5.808;2023-03-01T01:11:46;1.90;99.90
26803;DHT22;14378;51.796;5.808;2023-03-01T01:13:48;1.90;99.90
26803;DHT22;14378;51.796;5.808;2023-03-01T01:15:50;1.90;99.90
26803;DHT22;14378;51.796;5.808;2023-03-01T01:17:54;1.80;99.90
26803;DHT22;14378;51.796;5.808;2023-03-01T01:19:55;1.80;99.90
26803;DHT22;14378;51.796;5.808;2023-03-01T01:21:58;1.80;99.90
26803;DHT22;14378;51.796;5.808;2023-03-01T01:24:04;1.80;99.90
26803;DHT22;14378;51.796;5.808;2023-03-01T01:26:16;1.80;99.90
26803;DHT22;14378;51.796;5.808;2023-03-01T01:28:18;1.80;99.90
26803;DHT22;14378;51.796;5.808;2023-03-01T01:30:23;1.70;99.90
26803;DHT22;14378;51.796;5.808;2023-03-01T01:32:26;1.70;99.90
26803;DHT22;14378;51.796;5.808;2023-03-01T01:34:27;1.70;99.90
26803;DHT22;14378;51.796;5.808;2023-03-01T01:36:28;1.70;99.90
26803;DHT22;14378;51.796;5.808;2023-03-01T01:38:29;1.70;99.90
26803;DHT22;14378;51.796;5.808;2023-03-01T01:40:30;1.70;99.90
26803;DHT22;14378;51.796;5.808;2023-03-01T01:42:34;1.60;99.90
26803;DHT22;14378;51.796;5.808;2023-03-01T01:44:36;1.60;99.90
26803;DHT22;14378;51.796;5.808;2023-03-01T01:46:40;1.60;99.90
26803;DHT22;14378;51.796;5.808;2023-03-01T01:48:46;1.60;99.90
26803;DHT22;14378;51.796;5.808;2023-03-01T01:50:55;1.60;99.90
26803;DHT22;14378;51.796;5.808;2023-03-01T01:53:01;1.60;99.90
26803;DHT22;14378;51.796;5.808;2023-03-01T01:55:31;1.50;99.90
26803;DHT22;14378;51.796;5.808;2023-03-01T01:57:41;1.50;99.90
26803;DHT22;14378;51.796;5.808;2023-03-01T01:59:50;1.50;99.90
26803;DHT22;14378;51.796;5.808;2023-03-01T02:01:55;1.50;99.90
26803;DHT22;14378;51.796;5.808;2023-03-01T02:03:59;1.50;99.90
26803;DHT22;14378;51.796;5.808;2023-03-01T02:08:31;1.50;99.90
26803;DHT22;14378;51.796;5.808;2023-03-01T02:10:38;1.50;99.90
26803;DHT22;14378;51.796;5.808;2023-03-01T02:12:39;1.40;99.90
26803;DHT22;14378;51.796;5.808;2023-03-01T02:14:43;1.40;99.90
26803;DHT22;14378;51.796;5.808;2023-03-01T02:16:45;1.40;99.90
26803;DHT22;14378;51.796;5.808;2023-03-01T02:18:48;1.40;99.90
26803;DHT22;14378;51.796;5.808;2023-03-01T02:21:33;1.40;99.90
26803;DHT22;14378;51.796;5.808;2023-03-01T02:23:36;1.40;99.90
26803;DHT22;14378;51.796;5.808;2023-03-01T02:30:14;1.40;99.90
26803;DHT22;14378;51.796;5.808;2023-03-01T02:32:16;1.30;99.90
26803;DHT22;14378;51.796;5.808;2023-03-01T02:34:25;1.30;99.90
26803;DHT22;14378;51.796;5.808;2023-03-01T02:36:38;1.30;99.90
26803;DHT22;14378;51.796;5.808;2023-03-01T02:38:41;1.30;99.90
26803;DHT22;14378;51.796;5.808;2023-03-01T02:40:42;1.30;99.90
26803;DHT22;14378;51.796;5.808;2023-03-01T02:42:56;1.30;99.90
26803;DHT22;14378;51.796;5.808;2023-03-01T02:45:01;1.20;99.90
26803;DHT22;14378;51.796;5.808;2023-03-01T02:47:03;1.30;99.90
26803;DHT22;14378;51.796;5.808;2023-03-01T02:49:27;1.20;99.90
26803;DHT22;14378;51.796;5.808;2023-03-01T02:51:42;1.20;99.90
26803;DHT22;14378;51.796;5.808;2023-03-01T02:56:07;1.20;99.90
26803;DHT22;14378;51.796;5.808;2023-03-01T02:58:14;1.20;99.90
26803;DHT22;14378;51.796;5.808;2023-03-01T03:00:19;1.20;99.90
26803;DHT22;14378;51.796;5.808;2023-03-01T03:02:28;1.20;99.90
26803;DHT22;14378;51.796;5.808;2023-03-01T03:04:52;1.20;99.90
26803;DHT22;14378;51.796;5.808;2023-03-01T03:06:53;1.20;99.90
26803;DHT22;14378;51.796;5.808;2023-03-01T03:08:54;1.20;99.90
26803;DHT22;14378;51.796;5.808;2023-03-01T03:10:55;1.20;99.90
26803;DHT22;14378;51.796;5.808;2023-03-01T03:13:03;1.20;99.90
26803;DHT22;14378;51.796;5.808;2023-03-01T03:15:06;1.20;99.90
26803;DHT22;14378;51.796;5.808;2023-03-01T03:17:09;1.10;99.90
26803;DHT22;14378;51.796;5.808;2023-03-01T03:19:11;1.10;99.90
26803;DHT22;14378;51.796;5.808;2023-03-01T03:21:13;1.10;99.90
26803;DHT22;14378;51.796;5.808;2023-03-01T03:23:14;1.10;99.90
26803;DHT22;14378;51.796;5.808;2023-03-01T03:25:16;1.10;99.90
26803;DHT22;14378;51.796;5.808;2023-03-01T03:27:23;1.10;99.90
26803;DHT22;14378;51.796;5.808;2023-03-01T03:29:24;1.10;99.90
26803;DHT22;14378;51.796;5.808;2023-03-01T03:31:25;1.10;99.90
26803;DHT22;14378;51.796;5.808;2023-03-01T03:33:26;1.10;99.90
26803;DHT22;14378;51.796;5.808;2023-03-01T03:35:32;1.10;99.90
26803;DHT22;14378;51.796;5.808;2023-03-01T03:37:33;1.10;99.90
26803;DHT22;14378;51.796;5.808;2023-03-01T03:39:53;1.10;99.90
26803;DHT22;14378;51.796;5.808;2023-03-01T03:41:56;1.00;99.90
26803;DHT22;14378;51.796;5.808;2023-03-01T03:43:57;1.00;99.90
26803;DHT22;14378;51.796;5.808;2023-03-01T03:45:59;1.00;99.90
26803;DHT22;14378;51.796;5.808;2023-03-01T03:48:01;1.10;99.90
26803;DHT22;14378;51.796;5.808;2023-03-01T03:50:04;1.00;99.90
26803;DHT22;14378;51.796;5.808;2023-03-01T03:52:05;1.00;99.90
26803;DHT22;14378;51.796;5.808;2023-03-01T03:54:13;1.00;99.90
26803;DHT22;14378;51.796;5.808;2023-03-01T03:56:14;1.00;99.90
26803;DHT22;14378;51.796;5.808;2023-03-01T03:58:16;1.00;99.90
26803;DHT22;14378;51.796;5.808;2023-03-01T04:00:21;1.00;99.90
26803;DHT22;14378;51.796;5.808;2023-03-01T04:02:24;1.00;99.90
26803;DHT22;14378;51.796;5.808;2023-03-01T04:04:26;1.00;99.90
26803;DHT22;14378;51.796;5.808;2023-03-01T04:06:26;1.00;99.90
26803;DHT22;14378;51.796;5.808;2023-03-01T04:08:28;1.00;99.90
26803;DHT22;14378;51.796;5.808;2023-03-01T04:10:32;1.00;99.90
26803;DHT22;14378;51.796;5.808;2023-03-01T04:12:34;1.00;99.90
26803;DHT22;14378;51.796;5.808;2023-03-01T04:14:35;1.00;99.90
26803;DHT22;14378;51.796;5.808;2023-03-01T04:16:36;1.00;99.90
26803;DHT22;14378;51.796;5.808;2023-03-01T04:18:37;1.00;99.90
26803;DHT22;14378;51.796;5.808;2023-03-01T04:20:38;1.00;99.90
26803;DHT22;14378;51.796;5.808;2023-03-01T04:22:40;1.00;99.90
26803;DHT22;14378;51.796;5.808;2023-03-01T04:24:41;0.90;99.90
26803;DHT22;14378;51.796;5.808;2023-03-01T04:26:42;1.00;99.90
26803;DHT22;14378;51.796;5.808;2023-03-01T04:28:43;1.00;99.90
26803;DHT22;14378;51.796;5.808;2023-03-01T04:30:46;1.00;99.90
26803;DHT22;14378;51.796;5.808;2023-03-01T04:32:47;1.00;99.90
26803;DHT22;14378;51.796;5.808;2023-03-01T04:34:48;1.00;99.90
26803;DHT22;14378;51.796;5.808;2023-03-01T04:36:58;0.90;99.90
26803;DHT22;14378;51.796;5.808;2023-03-01T04:39:02;0.90;99.90
26803;DHT22;14378;51.796;5.808;2023-03-01T04:41:18;0.90;99.90
26803;DHT22;14378;51.796;5.808;2023-03-01T04:43:19;0.90;99.90
26803;DHT22;14378;51.796;5.808;2023-03-01T04:45:24;0.90;99.90
26803;DHT22;14378;51.796;5.808;2023-03-01T04:47:25;0.90;99.90
26803;DHT22;14378;51.796;5.808;2023-03-01T04:49:26;0.90;99.90
26803;DHT22;14378;51.796;5.808;2023-03-01T04:51:27;0.90;99.90
26803;DHT22;14378;51.796;5.808;2023-03-01T04:53:29;0.90;99.90
26803;DHT22;14378;51.796;5.808;2023-03-01T04:55:30;0.90;99.90
26803;DHT22;14378;51.796;5.808;2023-03-01T04:57:32;0.90;99.90
26803;DHT22;14378;51.796;5.808;2023-03-01T04:59:33;0.90;99.90
26803;DHT22;14378;51.796;5.808;2023-03-01T05:01:34;0.90;99.90
26803;DHT22;14378;51.796;5.808;2023-03-01T05:03:35;0.90;99.90
26803;DHT22;14378;51.796;5.808;2023-03-01T05:05:37;0.90;99.90
26803;DHT22;14378;51.796;5.808;2023-03-01T05:07:39;0.90;99.90
26803;DHT22;14378;51.796;5.808;2023-03-01T05:09:40;0.90;99.90
26803;DHT22;14378;51.796;5.808;2023-03-01T05:11:41;0.90;99.90
26803;DHT22;14378;51.796;5.808;2023-03-01T05:13:43;0.90;99.90
26803;DHT22;14378;51.796;5.808;2023-03-01T05:15:44;0.90;99.90
26803;DHT22;14378;51.796;5.808;2023-03-01T05:17:45;0.90;99.90
26803;DHT22;14378;51.796;5.808;2023-03-01T05:19:46;0.80;99.90
26803;DHT22;14378;51.796;5.808;2023-03-01T05:21:48;0.80;99.90
26803;DHT22;14378;51.796;5.808;2023-03-01T05:24:04;0.80;99.90
26803;DHT22;14378;51.796;5.808;2023-03-01T05:26:07;0.80;99.90
26803;DHT22;14378;51.796;5.808;2023-03-01T05:28:12;0.80;99.90
26803;DHT22;14378;51.796;5.808;2023-03-01T05:30:13;0.70;99.90
26803;DHT22;14378;51.796;5.808;2023-03-01T05:32:14;0.70;99.90
26803;DHT22;14378;51.796;5.808;2023-03-01T05:34:16;0.70;99.90
26803;DHT22;14378;51.796;5.808;2023-03-01T05:36:17;0.70;99.90
26803;DHT22;14378;51.796;5.808;2023-03-01T05:38:20;0.70;99.90
26803;DHT22;14378;51.796;5.808;2023-03-01T05:40:26;0.70;99.90
26803;DHT22;14378;51.796;5.808;2023-03-01T05:42:27;0.70;99.90
26803;DHT22;14378;51.796;5.808;2023-03-01T05:44:29;0.70;99.90
26803;DHT22;14378;51.796;5.808;2023-03-01T05:46:30;0.70;99.90
26803;DHT22;14378;51.796;5.808;2023-03-01T05:48:31;0.60;99.90
26803;DHT22;14378;51.796;5.808;2023-03-01T05:50:34;0.70;99.90
26803;DHT22;14378;51.796;5.808;2023-03-01T05:52:40;0.70;99.90
26803;DHT22;14378;51.796;5.808;2023-03-01T05:54:41;0.70;99.90
26803;DHT22;14378;51.796;5.808;2023-03-01T05:56:43;0.70;99.90
26803;DHT22;14378;51.796;5.808;2023-03-01T05:58:44;0.70;99.90
26803;DHT22;14378;51.796;5.808;2023-03-01T06:00:47;0.60;99.90
26803;DHT22;14378;51.796;5.808;2023-03-01T06:02:48;0.60;99.90
26803;DHT22;14378;51.796;5.808;2023-03-01T06:04:50;0.60;99.90
26803;DHT22;14378;51.796;5.808;2023-03-01T06:06:52;0.60;99.90
26803;DHT22;14378;51.796;5.808;2023-03-01T06:08:53;0.60;99.90
26803;DHT22;14378;51.796;5.808;2023-03-01T06:10:54;0.60;99.90
26803;DHT22;14378;51.796;5.808;2023-03-01T06:12:56;0.60;99.90
26803;DHT22;14378;51.796;5.808;2023-03-01T06:14:57;0.60;99.90
26803;DHT22;14378;51.796;5.808;2023-03-01T06:16:58;0.60;99.90
26803;DHT22;14378;51.796;5.808;2023-03-01T06:18:59;0.50;99.90
26803;DHT22;14378;51.796;5.808;2023-03-01T06:21:00;0.50;99.90
26803;DHT22;14378;51.796;5.808;2023-03-01T06:23:01;0.50;99.90
26803;DHT22;14378;51.796;5.808;2023-03-01T06:25:05;0.50;99.90
26803;DHT22;14378;51.796;5.808;2023-03-01T06:27:06;0.50;99.90
26803;DHT22;14378;51.796;5.808;2023-03-01T06:29:11;0.50;99.90
26803;DHT22;14378;51.796;5.808;2023-03-01T06:31:12;0.50;99.90
26803;DHT22;14378;51.796;5.808;2023-03-01T06:33:13;0.50;99.90
26803;DHT22;14378;51.796;5.808;2023-03-01T06:35:16;0.40;99.90
26803;DHT22;14378;51.796;5.808;2023-03-01T06:37:26;0.40;99.90
26803;DHT22;14378;51.796;5.808;2023-03-01T06:39:27;0.40;99.90
26803;DHT22;14378;51.796;5.808;2023-03-01T06:41:28;0.40;99.90
26803;DHT22;14378;51.796;5.808;2023-03-01T06:43:29;0.40;99.90
26803;DHT22;14378;51.796;5.808;2023-03-01T06:45:30;0.40;99.90
26803;DHT22;14378;51.796;5.808;2023-03-01T06:47:32;0.40;99.90
26803;DHT22;14378;51.796;5.808;2023-03-01T06:49:36;0.40;99.90
26803;DHT22;14378;51.796;5.808;2023-03-01T06:51:37;0.40;99.90
26803;DHT22;14378;51.796;5.808;2023-03-01T06:53:38;0.40;99.90
26803;DHT22;14378;51.796;5.808;2023-03-01T06:55:42;0.40;99.90
26803;DHT22;14378;51.796;5.808;2023-03-01T06:57:43;0.40;99.90
26803;DHT22;14378;51.796;5.808;2023-03-01T06:59:44;0.40;99.90
26803;DHT22;14378;51.796;5.808;2023-03-01T07:01:45;0.40;99.90
26803;DHT22;14378;51.796;5.808;2023-03-01T07:03:45;0.40;99.90
26803;DHT22;14378;51.796;5.808;2023-03-01T07:05:49;0.40;99.90
26803;DHT22;14378;51.796;5.808;2023-03-01T07:07:53;0.40;99.90
26803;DHT22;14378;51.796;5.808;2023-03-01T07:09:55;0.40;99.90
26803;DHT22;14378;51.796;5.808;2023-03-01T07:11:56;0.40;99.90
26803;DHT22;14378;51.796;5.808;2023-03-01T07:13:57;0.40;99.90
26803;DHT22;14378;51.796;5.808;2023-03-01T07:15:59;0.40;99.90
26803;DHT22;14378;51.796;5.808;2023-03-01T07:18:00;0.50;99.90
26803;DHT22;14378;51.796;5.808;2023-03-01T07:20:01;0.40;99.90
26803;DHT22;14378;51.796;5.808;2023-03-01T07:22:03;0.50;99.90
26803;DHT22;14378;51.796;5.808;2023-03-01T07:24:06;0.50;99.90
26803;DHT22;14378;51.796;5.808;2023-03-01T07:26:08;0.50;99.90
26803;DHT22;14378;51.796;5.808;2023-03-01T07:28:09;0.50;99.90
26803;DHT22;14378;51.796;5.808;2023-03-01T07:30:10;0.50;99.90
26803;DHT22;14378;51.796;5.808;2023-03-01T07:32:11;0.50;99.90
26803;DHT22;14378;51.796;5.808;2023-03-01T07:34:12;0.60;99.90
26803;DHT22;14378;51.796;5.808;2023-03-01T07:36:13;0.60;99.90
26803;DHT22;14378;51.796;5.808;2023-03-01T07:38:14;0.60;99.90
26803;DHT22;14378;51.796;5.808;2023-03-01T07:40:15;0.60;99.90
26803;DHT22;14378;51.796;5.808;2023-03-01T07:42:17;0.70;99.90
26803;DHT22;14378;51.796;5.808;2023-03-01T07:44:18;0.70;99.90
26803;DHT22;14378;51.796;5.808;2023-03-01T07:46:19;0.70;99.90
26803;DHT22;14378;51.796;5.808;2023-03-01T07:48:23;0.80;99.90
26803;DHT22;14378;51.796;5.808;2023-03-01T07:50:24;0.80;99.90
26803;DHT22;14378;51.796;5.808;2023-03-01T07:52:25;0.80;99.90
26803;DHT22;14378;51.796;5.808;2023-03-01T07:54:26;0.90;99.90
26803;DHT22;14378;51.796;5.808;2023-03-01T07:56:27;0.90;99.90
26803;DHT22;14378;51.796;5.808;2023-03-01T07:58:28;0.90;99.90
26803;DHT22;14378;51.796;5.808;2023-03-01T08:00:29;1.00;99.90
26803;DHT22;14378;51.796;5.808;2023-03-01T08:02:31;1.00;99.90
26803;DHT22;14378;51.796;5.808;2023-03-01T08:04:32;1.00;99.90
26803;DHT22;14378;51.796;5.808;2023-03-01T08:06:35;1.10;99.90
26803;DHT22;14378;51.796;5.808;2023-03-01T08:08:36;1.10;99.90
26803;DHT22;14378;51.796;5.808;2023-03-01T08:10:37;1.10;99.90
26803;DHT22;14378;51.796;5.808;2023-03-01T08:12:41;1.20;99.90
26803;DHT22;14378;51.796;5.808;2023-03-01T08:14:42;1.20;99.90
26803;DHT22;14378;51.796;5.808;2023-03-01T08:16:43;1.20;99.90
26803;DHT22;14378;51.796;5.808;2023-03-01T08:18:44;1.30;99.90
26803;DHT22;14378;51.796;5.808;2023-03-01T08:20:45;1.30;99.90
26803;DHT22;14378;51.796;5.808;2023-03-01T08:22:46;1.30;99.90
26803;DHT22;14378;51.796;5.808;2023-03-01T08:24:47;1.40;99.90
26803;DHT22;14378;51.796;5.808;2023-03-01T08:26:48;1.40;99.90
26803;DHT22;14378;51.796;5.808;2023-03-01T08:28:49;1.50;99.90
26803;DHT22;14378;51.796;5.808;2023-03-01T08:30:51;1.50;99.90
26803;DHT22;14378;51.796;5.808;2023-03-01T08:32:56;1.60;99.90
26803;DHT22;14378;51.796;5.808;2023-03-01T08:34:57;1.70;99.90
26803;DHT22;14378;51.796;5.808;2023-03-01T08:36:58;1.70;99.90
26803;DHT22;14378;51.796;5.808;2023-03-01T08:38:59;1.80;99.90
26803;DHT22;14378;51.796;5.808;2023-03-01T08:41:02;1.80;99.90
26803;DHT22;14378;51.796;5.808;2023-03-01T08:43:03;1.90;99.90
26803;DHT22;14378;51.796;5.808;2023-03-01T08:45:07;2.00;99.90
26803;DHT22;14378;51.796;5.808;2023-03-01T08:47:08;2.00;99.90
26803;DHT22;14378;51.796;5.808;2023-03-01T08:49:16;2.10;99.90
26803;DHT22;14378;51.796;5.808;2023-03-01T08:51:19;2.20;99.90
26803;DHT22;14378;51.796;5.808;2023-03-01T08:53:20;2.30;99.90
26803;DHT22;14378;51.796;5.808;2023-03-01T08:55:22;2.40;99.90
26803;DHT22;14378;51.796;5.808;2023-03-01T08:57:23;2.50;99.90
26803;DHT22;14378;51.796;5.808;2023-03-01T08:59:25;2.50;99.90
26803;DHT22;14378;51.796;5.808;2023-03-01T09:01:27;2.60;99.90
26803;DHT22;14378;51.796;5.808;2023-03-01T09:03:28;2.70;99.90
26803;DHT22;14378;51.796;5.808;2023-03-01T09:05:31;2.80;99.90
26803;DHT22;14378;51.796;5.808;2023-03-01T09:07:33;2.90;99.90
26803;DHT22;14378;51.796;5.808;2023-03-01T09:09:34;3.00;99.90
26803;DHT22;14378;51.796;5.808;2023-03-01T09:11:36;3.20;99.90
26803;DHT22;14378;51.796;5.808;2023-03-01T09:13:40;3.20;99.90
26803;DHT22;14378;51.796;5.808;2023-03-01T09:15:41;3.30;99.90
26803;DHT22;14378;51.796;5.808;2023-03-01T09:17:42;3.50;99.90
26803;DHT22;14378;51.796;5.808;2023-03-01T09:19:45;3.60;99.90
26803;DHT22;14378;51.796;5.808;2023-03-01T09:21:46;3.70;99.90
26803;DHT22;14378;51.796;5.808;2023-03-01T09:23:56;3.80;99.90
26803;DHT22;14378;51.796;5.808;2023-03-01T09:25:57;3.90;99.90
26803;DHT22;14378;51.796;5.808;2023-03-01T09:27:58;4.00;99.90
26803;DHT22;14378;51.796;5.808;2023-03-01T09:29:59;4.20;99.90
26803;DHT22;14378;51.796;5.808;2023-03-01T09:32:00;4.20;99.90
26803;DHT22;14378;51.796;5.808;2023-03-01T09:34:02;4.30;99.90
26803;DHT22;14378;51.796;5.808;2023-03-01T09:36:05;4.40;99.90
26803;DHT22;14378;51.796;5.808;2023-03-01T09:38:10;4.60;99.90
26803;DHT22;14378;51.796;5.808;2023-03-01T09:40:20;4.70;99.90
26803;DHT22;14378;51.796;5.808;2023-03-01T09:42:21;4.90;99.90
26803;DHT22;14378;51.796;5.808;2023-03-01T09:46:39;5.30;99.90
26803;DHT22;14378;51.796;5.808;2023-03-01T09:49:09;5.50;99.90
26803;DHT22;14378;51.796;5.808;2023-03-01T09:51:26;5.60;99.90
26803;DHT22;14378;51.796;5.808;2023-03-01T09:53:33;5.90;99.90
26803;DHT22;14378;51.796;5.808;2023-03-01T10:00:47;6.60;99.90
26803;DHT22;14378;51.796;5.808;2023-03-01T10:03:01;6.80;99.90
26803;DHT22;14378;51.796;5.808;2023-03-01T10:05:27;7.10;99.90
26803;DHT22;14378;51.796;5.808;2023-03-01T10:08:30;7.40;99.90
26803;DHT22;14378;51.796;5.808;2023-03-01T10:12:34;7.90;99.90
26803;DHT22;14378;51.796;5.808;2023-03-01T10:16:58;8.20;98.80
26803;DHT22;14378;51.796;5.808;2023-03-01T10:19:05;8.40;98.50
26803;DHT22;14378;51.796;5.808;2023-03-01T10:21:39;8.50;98.40
26803;DHT22;14378;51.796;5.808;2023-03-01T10:23:43;8.70;98.10
26803;DHT22;14378;51.796;5.808;2023-03-01T10:25:48;8.90;97.30
26803;DHT22;14378;51.796;5.808;2023-03-01T10:28:01;8.90;96.50
26803;DHT22;14378;51.796;5.808;2023-03-01T10:30:19;9.00;96.00
26803;DHT22;14378;51.796;5.808;2023-03-01T10:32:24;9.20;96.00
26803;DHT22;14378;51.796;5.808;2023-03-01T10:34:32;9.30;95.40
26803;DHT22;14378;51.796;5.808;2023-03-01T10:36:33;9.60;95.30
26803;DHT22;14378;51.796;5.808;2023-03-01T10:39:02;9.80;95.80
26803;DHT22;14378;51.796;5.808;2023-03-01T10:41:06;9.80;95.10
26803;DHT22;14378;51.796;5.808;2023-03-01T10:43:11;9.90;95.40
26803;DHT22;14378;51.796;5.808;2023-03-01T10:45:36;9.90;94.70
26803;DHT22;14378;51.796;5.808;2023-03-01T10:47:37;10.10;94.30
26803;DHT22;14378;51.796;5.808;2023-03-01T10:49:39;10.30;95.10
26803;DHT22;14378;51.796;5.808;2023-03-01T10:51:41;10.60;95.20
26803;DHT22;14378;51.796;5.808;2023-03-01T10:53:48;10.90;95.10
26803;DHT22;14378;51.796;5.808;2023-03-01T10:55:57;11.10;94.80
26803;DHT22;14378;51.796;5.808;2023-03-01T11:00:25;11.30;94.10
26803;DHT22;14378;51.796;5.808;2023-03-01T11:02:30;11.50;94.10
26803;DHT22;14378;51.796;5.808;2023-03-01T11:04:34;11.70;93.70
26803;DHT22;14378;51.796;5.808;2023-03-01T11:06:37;11.70;93.80
26803;DHT22;14378;51.796;5.808;2023-03-01T11:08:42;11.80;92.10
26803;DHT22;14378;51.796;5.808;2023-03-01T11:10:43;11.80;92.80
26803;DHT22;14378;51.796;5.808;2023-03-01T11:12:44;11.80;93.60
26803;DHT22;14378;51.796;5.808;2023-03-01T11:14:55;12.00;93.00
26803;DHT22;14378;51.796;5.808;2023-03-01T11:19:27;12.30;92.90
26803;DHT22;14378;51.796;5.808;2023-03-01T11:21:30;12.50;91.90
26803;DHT22;14378;51.796;5.808;2023-03-01T11:23:33;12.60;91.80
26803;DHT22;14378;51.796;5.808;2023-03-01T11:25:42;12.70;91.80
26803;DHT22;14378;51.796;5.808;2023-03-01T11:27:45;12.80;91.70
26803;DHT22;14378;51.796;5.808;2023-03-01T11:30:04;12.90;91.20
26803;DHT22;14378;51.796;5.808;2023-03-01T11:32:09;12.90;90.40
26803;DHT22;14378;51.796;5.808;2023-03-01T11:34:16;12.90;90.80
26803;DHT22;14378;51.796;5.808;2023-03-01T11:36:44;13.00;90.70
26803;DHT22;14378;51.796;5.808;2023-03-01T11:38:48;13.00;91.00
26803;DHT22;14378;51.796;5.808;2023-03-01T11:45:38;13.40;91.00
26803;DHT22;14378;51.796;5.808;2023-03-01T11:48:00;13.50;90.60
26803;DHT22;14378;51.796;5.808;2023-03-01T11:54:36;13.80;90.60
26803;DHT22;14378;51.796;5.808;2023-03-01T11:56:42;14.00;90.80
26803;DHT22;14378;51.796;5.808;2023-03-01T12:03:26;14.30;89.10
26803;DHT22;14378;51.796;5.808;2023-03-01T12:15:37;15.00;88.70
26803;DHT22;14378;51.796;5.808;2023-03-01T12:18:15;15.20;88.50
26803;DHT22;14378;51.796;5.808;2023-03-01T12:22:50;15.70;88.70
26803;DHT22;14378;51.796;5.808;2023-03-01T12:25:20;15.80;88.30
26803;DHT22;14378;51.796;5.808;2023-03-01T12:27:41;15.90;87.30
26803;DHT22;14378;51.796;5.808;2023-03-01T12:46:32;15.60;84.30
26803;DHT22;14378;51.796;5.808;2023-03-01T12:49:05;15.50;84.90
26803;DHT22;14378;51.796;5.808;2023-03-01T12:51:12;15.40;85.00
26803;DHT22;14378;51.796;5.808;2023-03-01T12:53:35;15.50;85.90
26803;DHT22;14378;51.796;5.808;2023-03-01T12:55:43;15.60;83.90
26803;DHT22;14378;51.796;5.808;2023-03-01T13:02:48;15.90;83.80
26803;DHT22;14378;51.796;5.808;2023-03-01T13:05:27;15.90;83.70
26803;DHT22;14378;51.796;5.808;2023-03-01T13:07:44;16.10;82.70
26803;DHT22;14378;51.796;5.808;2023-03-01T13:13:00;16.00;81.90
26803;DHT22;14378;51.796;5.808;2023-03-01T13:15:04;15.80;82.50
26803;DHT22;14378;51.796;5.808;2023-03-01T13:17:33;15.90;81.70
26803;DHT22;14378;51.796;5.808;2023-03-01T13:19:56;16.10;82.90
26803;DHT22;14378;51.796;5.808;2023-03-01T13:21:58;16.00;81.70
26803;DHT22;14378;51.796;5.808;2023-03-01T13:24:00;16.10;84.10
26803;DHT22;14378;51.796;5.808;2023-03-01T13:26:17;16.10;83.30
26803;DHT22;14378;51.796;5.808;2023-03-01T13:30:48;16.10;83.20
26803;DHT22;14378;51.796;5.808;2023-03-01T13:32:49;16.20;83.40
26803;DHT22;14378;51.796;5.808;2023-03-01T13:34:54;16.40;82.00
26803;DHT22;14378;51.796;5.808;2023-03-01T13:37:09;16.40;81.60
26803;DHT22;14378;51.796;5.808;2023-03-01T13:39:32;16.30;81.10
26803;DHT22;14378;51.796;5.808;2023-03-01T13:43:44;16.10;82.30
26803;DHT22;14378;51.796;5.808;2023-03-01T13:45:46;16.10;80.50
26803;DHT22;14378;51.796;5.808;2023-03-01T13:48:24;16.10;80.90
26803;DHT22;14378;51.796;5.808;2023-03-01T13:50:29;16.20;79.80
26803;DHT22;14378;51.796;5.808;2023-03-01T13:52:44;16.00;78.40
26803;DHT22;14378;51.796;5.808;2023-03-01T13:54:46;15.90;80.20
26803;DHT22;14378;51.796;5.808;2023-03-01T13:56:47;15.90;78.20
26803;DHT22;14378;51.796;5.808;2023-03-01T13:59:19;15.80;77.00
26803;DHT22;14378;51.796;5.808;2023-03-01T14:01:28;15.70;80.70
26803;DHT22;14378;51.796;5.808;2023-03-01T14:03:33;15.70;81.40
26803;DHT22;14378;51.796;5.808;2023-03-01T14:05:35;15.70;79.90
26803;DHT22;14378;51.796;5.808;2023-03-01T14:07:36;15.90;81.00
26803;DHT22;14378;51.796;5.808;2023-03-01T14:09:44;15.90;80.10
26803;DHT22;14378;51.796;5.808;2023-03-01T14:14:24;16.10;78.90
26803;DHT22;14378;51.796;5.808;2023-03-01T14:18:52;15.90;79.60
26803;DHT22;14378;51.796;5.808;2023-03-01T14:21:08;15.80;80.10
26803;DHT22;14378;51.796;5.808;2023-03-01T14:23:20;15.70;79.50
26803;DHT22;14378;51.796;5.808;2023-03-01T14:25:35;15.80;79.70
26803;DHT22;14378;51.796;5.808;2023-03-01T14:27:38;15.90;82.10
26803;DHT22;14378;51.796;5.808;2023-03-01T14:29:43;15.90;81.00
26803;DHT22;14378;51.796;5.808;2023-03-01T14:31:44;15.90;81.60
26803;DHT22;14378;51.796;5.808;2023-03-01T14:33:55;15.90;79.80
26803;DHT22;14378;51.796;5.808;2023-03-01T14:36:13;15.70;80.20
26803;DHT22;14378;51.796;5.808;2023-03-01T14:38:22;15.70;82.30
26803;DHT22;14378;51.796;5.808;2023-03-01T14:40:40;15.70;79.80
26803;DHT22;14378;51.796;5.808;2023-03-01T14:42:41;15.70;79.00
26803;DHT22;14378;51.796;5.808;2023-03-01T14:45:00;15.80;79.80
26803;DHT22;14378;51.796;5.808;2023-03-01T14:47:02;15.70;79.50
26803;DHT22;14378;51.796;5.808;2023-03-01T14:49:17;15.80;79.50
26803;DHT22;14378;51.796;5.808;2023-03-01T14:51:20;15.70;79.70
26803;DHT22;14378;51.796;5.808;2023-03-01T14:53:27;15.50;79.40